LIRF/FCO METAR and TAF weather

Enter ICAO airport designator
Station Type Date Time Source
LIRF METAR 2019/08/19 22:20 UTC NOAA

LIRF 192220Z 32002KT CAVOK 22/22 Q1017 NOSIG


Station Type Date Time Source
LIRF Decoded METAR 2019/08/19 22:20 UTC NOAA

Roma Fiumicino, Italy (LIRF) 41-48N 012-14E 3M
Aug 19, 2019 - 06:20 PM EDT / 2019.08.19 2220 UTC
Wind: from the NW (320 degrees) at 2 MPH (2 KT):0
Visibility: greater than 7 mile(s):0
Temperature: 71 F (22 C)
Dew Point: 71 F (22 C)
Relative Humidity: 100%
Pressure (altimeter): 30.03 in. Hg (1017 hPa)
ob: LIRF 192220Z 32002KT CAVOK 22/22 Q1017 NOSIG
cycle: 22

Station Type Date Time Source
LIRF TAF 2019/08/19 21:36 UTC NOAA

TAF
AMD TAF
AMD LIRF 182143Z 1821/1924 VRB05KT CAVOK
TEMPO 1821/1906 0800 BCFG BKN004
BECMG 1910/1912 28012KT
BECMG 1918/1920 VRB05K

Example: see airport list